createdAt,value
2023-12-10T00:01:04.295Z,-0.29
2023-12-10T00:03:32.888Z,-0.23
2023-12-10T00:06:07.227Z,-0.29
2023-12-10T00:08:40.602Z,-0.26
2023-12-10T00:11:07.454Z,-0.26
2023-12-10T00:13:34.229Z,-0.23
2023-12-10T00:16:01.082Z,-0.22
2023-12-10T00:18:28.092Z,-0.18
2023-12-10T00:20:56.388Z,-0.29
2023-12-10T00:23:23.209Z,-0.30
2023-12-10T00:25:49.956Z,-0.25
2023-12-10T00:28:16.732Z,-0.22
2023-12-10T00:30:44.145Z,-0.13
2023-12-10T00:33:11.158Z,-0.22
2023-12-10T00:35:38.058Z,-0.23
2023-12-10T00:38:06.264Z,-0.08
2023-12-10T00:40:33.051Z,-0.19
2023-12-10T00:42:59.877Z,-0.21
2023-12-10T00:45:26.807Z,-0.23
2023-12-10T00:47:53.720Z,-0.22
2023-12-10T00:50:20.626Z,-0.19
2023-12-10T00:52:47.550Z,-0.19
2023-12-10T00:55:15.776Z,-0.15
2023-12-10T00:57:42.582Z,-0.16
2023-12-10T01:00:13.600Z,-0.18
2023-12-10T01:02:40.931Z,-0.18
2023-12-10T01:05:08.546Z,-0.21
2023-12-10T01:07:35.358Z,-0.18
2023-12-10T01:10:02.218Z,-0.11
2023-12-10T01:12:30.684Z,-0.16
2023-12-10T01:14:57.908Z,-0.13
2023-12-10T01:17:24.709Z,-0.15
2023-12-10T01:19:51.552Z,-0.19
2023-12-10T01:22:18.408Z,-0.11
2023-12-10T01:24:45.257Z,-0.13
2023-12-10T01:27:12.108Z,-0.11
2023-12-10T01:29:40.418Z,-0.11
2023-12-10T01:32:07.294Z,-0.11
2023-12-10T01:34:34.398Z,-0.11
2023-12-10T01:37:01.810Z,-0.13
2023-12-10T01:39:28.636Z,-0.12
2023-12-10T01:41:55.493Z,-0.08
2023-12-10T01:44:22.357Z,-0.15
2023-12-10T01:46:50.550Z,-0.09
2023-12-10T01:49:17.380Z,-0.05
2023-12-10T01:51:44.548Z,-0.08
2023-12-10T01:54:11.722Z,-0.12
2023-12-10T01:56:39.626Z,-0.02
2023-12-10T01:59:09.331Z,-0.11
2023-12-10T02:01:36.206Z,-0.05
2023-12-10T02:04:04.805Z,-0.09
2023-12-10T02:06:31.668Z,-0.12
2023-12-10T02:08:58.528Z,-0.12
2023-12-10T02:11:25.367Z,-0.12
2023-12-10T02:13:52.197Z,-0.12
2023-12-10T02:16:18.960Z,-0.08
2023-12-10T02:18:45.903Z,-0.06
2023-12-10T02:21:14.302Z,-0.11
2023-12-10T02:23:48.112Z,-0.13
2023-12-10T02:26:16.350Z,-0.09
2023-12-10T02:28:43.130Z,-0.12
2023-12-10T02:31:10.014Z,-0.12
2023-12-10T02:33:36.926Z,-0.08
2023-12-10T02:36:04.463Z,-0.13
2023-12-10T02:38:31.263Z,-0.13
2023-12-10T02:40:58.121Z,-0.12
2023-12-10T02:43:26.364Z,-0.12
2023-12-10T02:45:53.198Z,-0.16
2023-12-10T02:48:20.116Z,-0.18
2023-12-10T02:50:47.013Z,-0.15
2023-12-10T02:53:13.795Z,-0.16
2023-12-10T02:55:40.618Z,-0.15
2023-12-10T02:58:07.412Z,-0.12
2023-12-10T03:00:35.769Z,-0.08
2023-12-10T03:03:02.689Z,-0.08
2023-12-10T03:05:29.533Z,-0.09
2023-12-10T03:07:56.334Z,-0.01
2023-12-10T03:10:23.149Z,-0.02
2023-12-10T03:12:49.982Z,-0.06
2023-12-10T03:15:16.946Z,-0.06
2023-12-10T03:17:45.399Z,-0.02
2023-12-10T03:20:12.316Z,-0.02
2023-12-10T03:22:39.156Z,-0.06
2023-12-10T03:25:07.074Z,0.05
2023-12-10T03:27:33.944Z,0.02
2023-12-10T03:30:00.730Z,-0.01
2023-12-10T03:32:27.902Z,-0.03
2023-12-10T03:34:56.410Z,-0.01
2023-12-10T03:37:23.283Z,-0.01
2023-12-10T03:39:50.262Z,-0.05
2023-12-10T03:42:17.029Z,-0.03
2023-12-10T03:44:43.899Z,-0.02
2023-12-10T03:47:10.694Z,-0.11
2023-12-10T03:49:37.586Z,-0.13
2023-12-10T03:52:06.572Z,-0.15
2023-12-10T03:54:33.880Z,-0.11
2023-12-10T03:57:00.896Z,-0.19
2023-12-10T03:59:27.828Z,-0.18
2023-12-10T04:01:54.741Z,-0.16
2023-12-10T04:04:21.574Z,-0.16
2023-12-10T04:06:48.492Z,-0.18
2023-12-10T04:09:16.750Z,-0.16
2023-12-10T04:11:43.559Z,-0.21
2023-12-10T04:14:10.428Z,-0.18
2023-12-10T04:16:37.456Z,-0.19
2023-12-10T04:19:04.386Z,-0.22
2023-12-10T04:21:31.206Z,-0.21
2023-12-10T04:23:58.028Z,-0.16
2023-12-10T04:26:26.242Z,-0.21
2023-12-10T04:28:52.998Z,-0.21
2023-12-10T04:31:20.136Z,-0.21
2023-12-10T04:33:47.004Z,-0.21
2023-12-10T04:36:13.848Z,-0.18
2023-12-10T04:38:40.794Z,-0.18
2023-12-10T04:41:07.576Z,-0.13
2023-12-10T04:43:35.900Z,-0.18
2023-12-10T04:46:02.691Z,-0.16
2023-12-10T04:48:29.558Z,-0.16
2023-12-10T04:50:56.400Z,-0.13
2023-12-10T04:53:23.201Z,-0.12
2023-12-10T04:55:49.957Z,-0.09
2023-12-10T04:58:16.822Z,-0.12
2023-12-10T05:00:45.706Z,-0.09
2023-12-10T05:03:12.785Z,-0.11
2023-12-10T05:05:39.711Z,-0.11
2023-12-10T05:08:06.578Z,-0.08
2023-12-10T05:10:33.333Z,-0.11
2023-12-10T05:13:00.218Z,-0.08
2023-12-10T05:15:27.153Z,-0.09
2023-12-10T05:17:55.487Z,-0.08
2023-12-10T05:20:22.323Z,-0.06
2023-12-10T05:22:49.361Z,-0.03
2023-12-10T05:25:16.165Z,-0.08
2023-12-10T05:27:42.932Z,-0.03
2023-12-10T05:30:10.458Z,-0.02
2023-12-10T05:32:37.245Z,-0.05
2023-12-10T05:35:06.300Z,-0.02
2023-12-10T05:37:33.150Z,-0.05
2023-12-10T05:39:59.978Z,-0.03
2023-12-10T05:42:27.017Z,-0.05
2023-12-10T05:44:54.032Z,-0.01
2023-12-10T05:47:20.823Z,0.01
2023-12-10T05:49:47.718Z,-0.03
2023-12-10T05:52:16.018Z,-0.06
2023-12-10T05:54:42.827Z,-0.05
2023-12-10T05:57:09.739Z,-0.03
2023-12-10T05:59:36.547Z,-0.02
2023-12-10T06:02:03.490Z,-0.02
2023-12-10T06:04:30.379Z,-0.05
2023-12-10T06:06:57.233Z,-0.03
2023-12-10T06:09:25.456Z,-0.02
2023-12-10T06:11:52.250Z,0.02
2023-12-10T06:14:19.003Z,-0.02
2023-12-10T06:16:45.796Z,-0.01
2023-12-10T06:19:12.629Z,-0.01
2023-12-10T06:21:39.454Z,-0.01
2023-12-10T06:24:06.397Z,0.01
2023-12-10T06:26:34.601Z,0.02
2023-12-10T06:29:01.452Z,0.02
2023-12-10T06:31:28.222Z,0.01
2023-12-10T06:33:55.167Z,0.02
2023-12-10T06:36:22.082Z,0.05
2023-12-10T06:38:48.878Z,0.01
2023-12-10T06:41:15.640Z,0.03
2023-12-10T06:43:44.409Z,0.01
2023-12-10T06:46:11.212Z,0.03
2023-12-10T06:48:38.175Z,0.03
2023-12-10T06:51:05.392Z,-0.01
2023-12-10T06:53:32.164Z,0.03
2023-12-10T06:55:59.110Z,0.08
2023-12-10T06:58:25.876Z,0.06
2023-12-10T07:00:54.228Z,0.03
2023-12-10T07:03:21.182Z,0.06
2023-12-10T07:05:48.073Z,0.10
2023-12-10T07:08:14.911Z,0.18
2023-12-10T07:10:41.747Z,0.15
2023-12-10T07:13:08.642Z,0.22
2023-12-10T07:15:35.539Z,0.23
2023-12-10T07:18:04.332Z,0.22
2023-12-10T07:20:31.192Z,0.32
2023-12-10T07:22:57.970Z,0.33
2023-12-10T07:25:24.747Z,0.32
2023-12-10T07:27:51.591Z,0.39
2023-12-10T07:30:18.641Z,0.32
2023-12-10T07:32:45.519Z,0.35
2023-12-10T07:35:13.929Z,0.33
2023-12-10T07:37:40.754Z,0.35
2023-12-10T07:40:08.424Z,0.49
2023-12-10T07:42:35.239Z,0.50
2023-12-10T07:45:02.154Z,0.56
2023-12-10T07:47:28.985Z,0.61
2023-12-10T07:49:55.920Z,0.60
2023-12-10T07:52:24.142Z,0.53
2023-12-10T07:54:50.950Z,0.56
2023-12-10T07:57:17.825Z,0.64
2023-12-10T07:59:44.606Z,0.54
2023-12-10T08:02:11.498Z,0.67
2023-12-10T08:04:38.376Z,0.64
2023-12-10T08:07:05.395Z,0.81
2023-12-10T08:09:33.741Z,0.84
2023-12-10T08:12:00.543Z,0.74
2023-12-10T08:14:28.866Z,0.77
2023-12-10T08:16:55.782Z,0.88
2023-12-10T08:19:22.663Z,0.91
2023-12-10T08:21:49.501Z,0.89
2023-12-10T08:24:16.321Z,0.92
2023-12-10T08:26:44.655Z,0.87
2023-12-10T08:29:11.465Z,0.95
2023-12-10T08:31:38.290Z,0.73
2023-12-10T08:34:05.239Z,0.78
2023-12-10T08:36:32.160Z,0.83
2023-12-10T08:38:58.944Z,0.80
2023-12-10T08:41:25.850Z,0.78
2023-12-10T08:43:54.073Z,0.83
2023-12-10T08:46:20.899Z,0.78
2023-12-10T08:48:47.979Z,0.91
2023-12-10T08:51:14.939Z,0.89
2023-12-10T08:53:41.761Z,0.94
2023-12-10T08:56:09.129Z,1.04
2023-12-10T08:58:35.943Z,0.92
2023-12-10T09:01:04.574Z,0.96
2023-12-10T09:03:31.555Z,1.02
2023-12-10T09:05:58.426Z,0.92
2023-12-10T09:08:25.243Z,0.99
2023-12-10T09:10:52.053Z,1.12
2023-12-10T09:13:18.955Z,0.92
2023-12-10T09:15:46.054Z,0.95
2023-12-10T09:18:14.398Z,1.21
2023-12-10T09:20:42.698Z,1.09
2023-12-10T09:23:09.438Z,1.14
2023-12-10T09:25:36.389Z,1.36
2023-12-10T09:28:06.215Z,1.39
2023-12-10T09:30:34.505Z,1.56
2023-12-10T09:33:01.378Z,1.33
2023-12-10T09:35:29.617Z,1.64
2023-12-10T09:37:56.529Z,1.67
2023-12-10T09:40:23.566Z,1.68
2023-12-10T09:42:50.348Z,1.67
2023-12-10T09:45:17.167Z,1.40
2023-12-10T09:47:44.983Z,1.64
2023-12-10T09:50:11.816Z,1.75
2023-12-10T09:52:40.134Z,2.04
2023-12-10T09:55:07.641Z,2.14
2023-12-10T09:57:34.623Z,2.25
2023-12-10T10:00:01.567Z,2.43
2023-12-10T10:02:31.814Z,2.54
2023-12-10T10:04:58.676Z,2.69
2023-12-10T10:07:25.524Z,2.80
2023-12-10T10:09:53.780Z,2.91
2023-12-10T10:12:20.559Z,2.76
2023-12-10T10:14:54.593Z,2.66
2023-12-10T10:17:26.774Z,2.73
2023-12-10T10:19:54.373Z,2.63
2023-12-10T10:22:21.585Z,2.76
2023-12-10T10:24:48.491Z,3.00
2023-12-10T10:27:17.341Z,3.21
2023-12-10T10:29:44.097Z,3.25
2023-12-10T10:32:11.111Z,2.89
2023-12-10T10:34:38.073Z,2.79
2023-12-10T10:37:05.221Z,2.73
2023-12-10T10:39:32.115Z,2.61
2023-12-10T10:41:58.967Z,2.39
2023-12-10T10:44:27.196Z,2.10
2023-12-10T10:46:54.022Z,2.04
2023-12-10T10:49:21.173Z,2.25
2023-12-10T10:51:48.153Z,2.31
2023-12-10T10:54:14.922Z,2.26
2023-12-10T10:56:41.689Z,2.42
2023-12-10T10:59:30.318Z,2.33
2023-12-10T11:01:58.712Z,2.35
2023-12-10T11:04:25.724Z,2.31
2023-12-10T11:06:52.744Z,2.22
2023-12-10T11:09:19.670Z,2.20
2023-12-10T11:11:46.456Z,2.07
2023-12-10T11:14:19.802Z,2.22
2023-12-10T11:16:50.606Z,2.28
2023-12-10T11:19:17.831Z,2.07
2023-12-10T11:21:44.826Z,2.15
2023-12-10T11:24:11.633Z,2.14
2023-12-10T11:26:38.432Z,2.18
2023-12-10T11:29:05.217Z,2.28
2023-12-10T11:31:31.992Z,2.33
2023-12-10T11:34:00.338Z,2.31
2023-12-10T11:36:36.413Z,2.48
2023-12-10T11:39:05.024Z,2.29
2023-12-10T11:41:31.831Z,2.31
2023-12-10T11:43:58.663Z,2.48
2023-12-10T11:46:34.341Z,2.41
2023-12-10T11:49:08.301Z,2.28
2023-12-10T11:51:35.526Z,2.36
2023-12-10T11:54:02.315Z,2.48
2023-12-10T11:56:29.249Z,2.53
2023-12-10T11:58:56.079Z,2.45
2023-12-10T12:01:23.059Z,2.41
2023-12-10T12:03:50.016Z,2.41
2023-12-10T12:06:18.263Z,2.36
2023-12-10T12:08:45.179Z,2.39
2023-12-10T12:11:13.927Z,2.49
2023-12-10T12:13:42.113Z,2.36
2023-12-10T12:16:09.195Z,2.41
2023-12-10T12:18:36.140Z,2.56
2023-12-10T12:21:03.211Z,2.41
2023-12-10T12:23:31.402Z,2.56
2023-12-10T12:25:58.213Z,2.57
2023-12-10T12:28:24.985Z,2.46
2023-12-10T12:30:51.907Z,2.49
2023-12-10T12:33:18.996Z,2.32
2023-12-10T12:35:45.900Z,2.31
2023-12-10T12:38:12.812Z,2.20
2023-12-10T12:40:41.058Z,2.29
2023-12-10T12:43:07.840Z,2.26
2023-12-10T12:45:34.712Z,2.15
2023-12-10T12:48:01.595Z,2.26
2023-12-10T12:50:28.436Z,2.33
2023-12-10T12:52:55.214Z,2.35
2023-12-10T12:55:21.981Z,2.48
2023-12-10T12:57:50.215Z,2.61
2023-12-10T13:00:17.603Z,2.67
2023-12-10T13:02:44.526Z,2.73
2023-12-10T13:05:11.636Z,2.79
2023-12-10T13:07:38.431Z,2.83
2023-12-10T13:10:06.631Z,2.77
2023-12-10T13:12:33.450Z,2.75
2023-12-10T13:15:01.698Z,2.70
2023-12-10T13:17:28.786Z,2.97
2023-12-10T13:19:55.765Z,3.04
2023-12-10T13:22:22.596Z,2.90
2023-12-10T13:24:49.399Z,3.08
2023-12-10T13:27:16.161Z,3.07
2023-12-10T13:29:42.961Z,2.87
2023-12-10T13:32:11.124Z,2.90
2023-12-10T13:34:37.950Z,3.00
2023-12-10T13:37:04.967Z,2.93
2023-12-10T13:39:31.914Z,2.80
2023-12-10T13:41:58.894Z,2.67
2023-12-10T13:44:25.671Z,2.69
2023-12-10T13:46:52.491Z,2.64
2023-12-10T13:49:20.769Z,2.63
2023-12-10T13:51:47.647Z,2.73
2023-12-10T13:54:14.687Z,2.60
2023-12-10T13:56:41.496Z,2.50
2023-12-10T13:59:08.287Z,2.46
2023-12-10T14:01:35.189Z,2.36
2023-12-10T14:04:02.828Z,2.39
2023-12-10T14:06:31.088Z,2.45
2023-12-10T14:08:58.020Z,2.56
2023-12-10T14:11:31.202Z,2.70
2023-12-10T14:14:01.919Z,2.67
2023-12-10T14:16:28.700Z,2.66
2023-12-10T14:18:55.615Z,2.64
2023-12-10T14:21:31.681Z,2.66
2023-12-10T14:24:01.160Z,2.56
2023-12-10T14:26:27.966Z,2.50
2023-12-10T14:28:54.962Z,2.52
2023-12-10T14:31:24.539Z,2.29
2023-12-10T14:33:53.220Z,2.20
2023-12-10T14:36:20.097Z,1.91
2023-12-10T14:38:46.930Z,1.74
2023-12-10T14:41:15.131Z,1.59
2023-12-10T14:43:41.939Z,1.49
2023-12-10T14:46:08.883Z,1.39
2023-12-10T14:48:36.002Z,1.38
2023-12-10T14:51:03.071Z,1.44
2023-12-10T14:53:29.912Z,1.44
2023-12-10T14:55:56.785Z,1.52
2023-12-10T14:58:24.948Z,1.49
2023-12-10T15:00:51.921Z,1.43
2023-12-10T15:03:18.906Z,1.40
2023-12-10T15:05:45.761Z,1.43
2023-12-10T15:08:12.707Z,1.43
2023-12-10T15:10:39.709Z,1.46
2023-12-10T15:13:06.598Z,1.32
2023-12-10T15:15:34.926Z,0.98
2023-12-10T15:18:01.850Z,0.80
2023-12-10T15:20:28.892Z,0.68
2023-12-10T15:22:55.679Z,0.61
2023-12-10T15:25:22.445Z,0.49
2023-12-10T15:27:49.260Z,0.33
2023-12-10T15:30:16.077Z,0.35
2023-12-10T15:32:44.418Z,0.43
2023-12-10T15:35:11.297Z,0.40
2023-12-10T15:37:38.084Z,0.45
2023-12-10T15:40:05.876Z,0.35
2023-12-10T15:42:32.710Z,0.30
2023-12-10T15:44:59.530Z,0.35
2023-12-10T15:47:26.510Z,0.22
2023-12-10T15:49:54.959Z,0.20
2023-12-10T15:52:26.456Z,0.06
2023-12-10T15:54:57.498Z,0.03
2023-12-10T15:57:24.400Z,0.10
2023-12-10T15:59:51.182Z,0.22
2023-12-10T16:02:18.467Z,0.20
2023-12-10T16:04:45.278Z,0.18
2023-12-10T16:07:16.596Z,0.46
2023-12-10T16:09:44.590Z,0.33
2023-12-10T16:12:11.450Z,0.25
2023-12-10T16:14:38.277Z,0.18
2023-12-10T16:17:05.194Z,0.05
2023-12-10T16:19:32.017Z,-0.03
2023-12-10T16:21:58.901Z,-0.05
2023-12-10T16:24:27.189Z,-0.16
2023-12-10T16:26:54.010Z,-0.22
2023-12-10T16:29:20.808Z,-0.42
2023-12-10T16:31:47.639Z,-0.42
2023-12-10T16:34:14.502Z,-0.34
2023-12-10T16:36:41.359Z,-0.52
2023-12-10T16:39:08.183Z,-0.67
2023-12-10T16:41:36.392Z,-0.79
2023-12-10T16:44:03.341Z,-0.85
2023-12-10T16:46:35.521Z,-0.85
2023-12-10T16:49:02.427Z,-0.90
2023-12-10T16:51:29.320Z,-0.98
2023-12-10T16:53:56.105Z,-1.00
2023-12-10T16:56:22.913Z,-1.05
2023-12-10T16:58:51.215Z,-1.12
2023-12-10T17:01:18.045Z,-1.18
2023-12-10T17:03:45.071Z,-1.16
2023-12-10T17:06:11.877Z,-0.91
2023-12-10T17:08:38.723Z,-1.08
2023-12-10T17:11:05.522Z,-1.16
2023-12-10T17:13:32.392Z,-1.27
2023-12-10T17:16:00.758Z,-1.22
2023-12-10T17:18:27.727Z,-1.16
2023-12-10T17:20:54.569Z,-0.97
2023-12-10T17:23:21.527Z,-1.16
2023-12-10T17:25:48.603Z,-1.19
2023-12-10T17:28:15.463Z,-1.31
2023-12-10T17:30:42.487Z,-1.31
2023-12-10T17:33:10.787Z,-1.35
2023-12-10T17:35:37.722Z,-1.24
2023-12-10T17:38:04.552Z,-1.20
2023-12-10T17:40:31.326Z,-1.28
2023-12-10T17:42:58.157Z,-1.13
2023-12-10T17:45:25.042Z,-1.05
2023-12-10T17:47:51.852Z,-0.91
2023-12-10T17:50:20.126Z,-0.83
2023-12-10T17:52:46.966Z,-0.76
2023-12-10T17:55:13.824Z,-0.84
2023-12-10T17:57:40.653Z,-0.90
2023-12-10T18:00:08.581Z,-0.91
2023-12-10T18:02:35.401Z,-0.90
2023-12-10T18:05:02.306Z,-0.88
2023-12-10T18:07:30.663Z,-0.83
2023-12-10T18:09:57.611Z,-0.85
2023-12-10T18:12:24.624Z,-0.84
2023-12-10T18:14:51.462Z,-0.74
2023-12-10T18:17:18.257Z,-0.69
2023-12-10T18:19:47.961Z,-0.61
2023-12-10T18:22:14.961Z,-0.56
2023-12-10T18:24:43.223Z,-0.54
2023-12-10T18:27:10.039Z,-0.53
2023-12-10T18:29:36.931Z,-0.50
2023-12-10T18:32:04.206Z,-0.52
2023-12-10T18:34:31.124Z,-0.43
2023-12-10T18:36:58.064Z,-0.33
2023-12-10T18:39:24.867Z,-0.22
2023-12-10T18:41:53.103Z,-0.18
2023-12-10T18:44:19.947Z,-0.06
2023-12-10T18:46:49.058Z,-0.01
2023-12-10T18:49:15.953Z,0.06
2023-12-10T18:51:42.975Z,0.12
2023-12-10T18:54:09.736Z,0.19
2023-12-10T18:56:36.554Z,0.27
2023-12-10T18:59:04.770Z,0.33
2023-12-10T19:01:31.612Z,0.39
2023-12-10T19:03:58.397Z,0.19
2023-12-10T19:06:25.277Z,0.26
2023-12-10T19:08:52.131Z,0.26
2023-12-10T19:11:18.934Z,0.23
2023-12-10T19:13:45.754Z,0.19
2023-12-10T19:16:14.003Z,0.10
2023-12-10T19:18:42.718Z,0.06
2023-12-10T19:21:09.561Z,0.09
2023-12-10T19:23:36.368Z,0.05
2023-12-10T19:26:03.405Z,0.12
2023-12-10T19:28:30.209Z,0.09
2023-12-10T19:30:57.090Z,0.10
2023-12-10T19:33:25.498Z,0.10
2023-12-10T19:35:52.545Z,0.10
2023-12-10T19:38:19.313Z,0.19
2023-12-10T19:40:46.099Z,0.22
2023-12-10T19:43:12.973Z,0.19
2023-12-10T19:45:39.771Z,0.15
2023-12-10T19:48:06.674Z,0.15
2023-12-10T19:50:34.977Z,-0.03
2023-12-10T19:53:01.763Z,-0.16
2023-12-10T19:55:28.577Z,-0.22
2023-12-10T19:57:55.406Z,-0.25
2023-12-10T20:00:25.495Z,-0.13
2023-12-10T20:02:52.354Z,-0.23
2023-12-10T20:05:19.360Z,-0.29
2023-12-10T20:07:47.612Z,-0.29
2023-12-10T20:10:15.820Z,-0.34
2023-12-10T20:12:42.721Z,-0.26
2023-12-10T20:15:10.495Z,-0.25
2023-12-10T20:17:39.297Z,-0.25
2023-12-10T20:20:07.356Z,-0.22
2023-12-10T20:22:34.128Z,-0.16
2023-12-10T20:25:03.497Z,-0.15
2023-12-10T20:27:31.126Z,-0.16
2023-12-10T20:30:00.762Z,-0.16
2023-12-10T20:32:27.520Z,-0.15
2023-12-10T20:34:57.301Z,-0.05
2023-12-10T20:37:24.106Z,-0.05
2023-12-10T20:39:50.966Z,0.01
2023-12-10T20:42:19.259Z,0.06
2023-12-10T20:44:46.045Z,-0.02
2023-12-10T20:47:12.878Z,0.05
2023-12-10T20:49:39.783Z,0.05
2023-12-10T20:52:06.955Z,0.25
2023-12-10T20:54:33.998Z,0.22
2023-12-10T20:57:00.841Z,0.25
2023-12-10T20:59:29.027Z,0.22
2023-12-10T21:01:55.871Z,0.12
2023-12-10T21:04:22.825Z,0.10
2023-12-10T21:06:52.972Z,0.10
2023-12-10T21:09:20.347Z,0.09
2023-12-10T21:11:47.155Z,0.20
2023-12-10T21:14:13.985Z,0.19
2023-12-10T21:16:42.190Z,0.15
2023-12-10T21:19:09.056Z,0.13
2023-12-10T21:21:35.919Z,0.15
2023-12-10T21:24:02.714Z,0.23
2023-12-10T21:26:29.519Z,0.23
2023-12-10T21:28:56.292Z,0.30
2023-12-10T21:31:25.569Z,0.33
2023-12-10T21:33:54.270Z,0.30
2023-12-10T21:36:21.099Z,0.27
2023-12-10T21:38:47.874Z,0.27
2023-12-10T21:41:14.723Z,0.23
2023-12-10T21:43:41.514Z,0.15
2023-12-10T21:46:08.399Z,0.15
2023-12-10T21:48:35.461Z,0.15
2023-12-10T21:51:04.443Z,0.23
2023-12-10T21:53:31.250Z,0.32
2023-12-10T21:55:58.048Z,0.43
2023-12-10T21:58:24.813Z,0.19
2023-12-10T22:00:51.660Z,0.16
2023-12-10T22:03:18.582Z,0.13
2023-12-10T22:05:45.385Z,0.23
2023-12-10T22:08:13.600Z,0.19
2023-12-10T22:10:40.397Z,0.18
2023-12-10T22:13:07.198Z,0.16
2023-12-10T22:15:34.019Z,0.13
2023-12-10T22:18:00.929Z,0.19
2023-12-10T22:20:27.779Z,0.12
2023-12-10T22:22:54.551Z,0.10
2023-12-10T22:25:22.775Z,0.09
2023-12-10T22:27:49.575Z,0.10
2023-12-10T22:30:16.475Z,0.10
2023-12-10T22:32:43.863Z,0.06
2023-12-10T22:35:10.729Z,0.09
2023-12-10T22:37:37.543Z,0.08
2023-12-10T22:40:05.634Z,0.08
2023-12-10T22:42:33.918Z,0.12
2023-12-10T22:45:00.734Z,0.19
2023-12-10T22:47:27.711Z,0.23
2023-12-10T22:49:54.730Z,0.29
2023-12-10T22:52:21.563Z,0.15
2023-12-10T22:54:48.447Z,0.12
2023-12-10T22:57:15.295Z,0.05
2023-12-10T22:59:44.247Z,0.08
2023-12-10T23:02:11.713Z,0.05
2023-12-10T23:04:38.736Z,0.06
2023-12-10T23:07:05.615Z,0.06
2023-12-10T23:09:32.478Z,0.13
2023-12-10T23:11:59.258Z,0.33
2023-12-10T23:14:26.024Z,0.22
2023-12-10T23:16:54.424Z,0.19
2023-12-10T23:19:21.382Z,0.12
2023-12-10T23:21:48.244Z,-0.01
2023-12-10T23:24:15.132Z,0.06
2023-12-10T23:26:41.945Z,0.10
2023-12-10T23:29:08.705Z,0.19
2023-12-10T23:31:35.600Z,0.32
2023-12-10T23:34:03.958Z,0.18
2023-12-10T23:36:30.800Z,0.08
2023-12-10T23:38:57.569Z,0.01
2023-12-10T23:41:24.354Z,0.01
2023-12-10T23:43:51.181Z,-0.02
2023-12-10T23:46:18.005Z,0.02
2023-12-10T23:48:44.817Z,0.26
2023-12-10T23:51:19.092Z,0.15
2023-12-10T23:53:45.897Z,0.06
2023-12-10T23:56:12.647Z,-0.06
2023-12-10T23:58:39.517Z,-0.05
